Time;durP1;ratioP1;P1;durP2;ratioP2;P2;SDS_P1;SDS_P2;PMS_P1;PMS_P2;Temp;Humidity;BMP_temperature;BMP_pressure;BME280_temperature;BME280_humidity;BME280_pressure;Samples;Min_cycle;Max_cycle;Signal;HPM_P1;HPM_P2
2022/08/15 00:00:20;;;;;;;21.05;18.85;;;;;;;21.95;71.18;100182.09;5018249;28;20456;-67
2022/08/15 00:02:47;;;;;;;21.88;18.98;;;;;;;21.93;70.85;100187.16;5005689;28;20057;-68
2022/08/15 00:05:18;;;;;;;20.77;17.90;;;;;;;21.94;70.21;100186.84;5005198;28;20029;-68
2022/08/15 00:07:44;;;;;;;20.63;18.20;;;;;;;22.03;68.35;100189.69;5005834;28;20648;-68
2022/08/15 00:10:09;;;;;;;21.95;18.30;;;;;;;22.18;67.83;100178.06;5005543;28;20817;-67
2022/08/15 00:12:35;;;;;;;21.60;17.67;;;;;;;22.23;67.99;100182.69;5005429;28;20054;-68
2022/08/15 00:15:08;;;;;;;23.67;18.55;;;;;;;22.24;67.97;100187.97;5005751;28;20092;-69
2022/08/15 00:17:34;;;;;;;22.08;18.58;;;;;;;22.12;68.39;100189.75;5005146;28;20022;-67
2022/08/15 00:20:00;;;;;;;21.15;18.70;;;;;;;21.98;69.10;100198.22;5003864;28;20099;-68
2022/08/15 00:22:26;;;;;;;24.58;21.00;;;;;;;22.10;66.03;100200.38;5005172;28;20475;-68
2022/08/15 00:24:51;;;;;;;21.98;19.65;;;;;;;22.21;66.14;100191.44;5005609;28;20022;-68
2022/08/15 00:27:16;;;;;;;22.48;20.00;;;;;;;22.25;66.14;100205.56;4987284;28;20068;-68
2022/08/15 00:29:42;;;;;;;24.45;20.02;;;;;;;22.36;65.10;100200.53;5005524;28;20079;-68
2022/08/15 00:32:12;;;;;;;21.70;19.55;;;;;;;22.38;65.51;100184.22;5005308;28;20018;-68
2022/08/15 00:34:38;;;;;;;23.77;21.35;;;;;;;22.32;65.65;100196.72;5010055;28;20146;-68
2022/08/15 00:37:05;;;;;;;24.35;19.13;;;;;;;22.33;65.78;100187.16;5011762;28;20542;-67
2022/08/15 00:39:32;;;;;;;22.75;19.38;;;;;;;22.30;65.76;100188.63;5005522;28;20030;-68
2022/08/15 00:42:00;;;;;;;21.63;19.35;;;;;;;22.26;66.65;100196.06;5004636;28;20030;-68
2022/08/15 00:44:33;;;;;;;;;;;;;;;22.42;64.92;100193.63;5005861;28;20473;-68
2022/08/15 00:47:03;;;;;;;23.17;20.67;;;;;;;22.24;66.26;100196.34;5004717;28;19920;-68
2022/08/15 00:49:31;;;;;;;22.88;20.25;;;;;;;22.16;65.98;100211.16;5004242;28;20076;-68
2022/08/15 00:52:01;;;;;;;23.95;20.33;;;;;;;22.16;65.84;100188.78;5004247;28;20026;-68
2022/08/15 00:54:38;;;;;;;24.60;21.98;;;;;;;22.06;67.02;100185.44;5009418;28;20033;-68
2022/08/15 00:57:09;;;;;;;24.30;21.33;;;;;;;21.94;67.38;100192.44;5004750;28;20416;-68
2022/08/15 00:59:38;;;;;;;23.73;21.08;;;;;;;21.82;68.73;100197.81;5005014;28;20022;-68
2022/08/15 01:02:11;;;;;;;22.35;19.83;;;;;;;21.77;68.91;100195.16;5004106;28;20079;-68
2022/08/15 01:04:37;;;;;;;23.42;20.95;;;;;;;21.63;69.41;100192.47;5027260;22;20054;-68
2022/08/15 01:07:03;;;;;;;23.05;20.65;;;;;;;21.49;70.12;100180.53;5003655;28;20101;-68
2022/08/15 01:09:30;;;;;;;24.27;20.80;;;;;;;21.25;71.39;100178.91;5003980;28;20030;-68
2022/08/15 01:12:01;;;;;;;23.65;21.23;;;;;;;21.16;72.25;100177.19;5003883;28;20129;-68
2022/08/15 01:14:30;;;;;;;23.88;21.40;;;;;;;21.15;72.56;100179.16;5004357;28;20046;-68
2022/08/15 01:16:55;;;;;;;24.03;21.37;;;;;;;21.14;72.39;100179.50;5003414;28;20029;-68
2022/08/15 01:19:27;;;;;;;23.48;21.05;;;;;;;21.15;72.40;100181.94;5003594;28;20287;-68
2022/08/15 01:22:00;;;;;;;23.77;20.48;;;;;;;21.09;72.55;100174.03;5011557;28;20053;-68
2022/08/15 01:24:25;;;;;;;23.55;20.58;;;;;;;21.16;72.04;100175.22;5023886;28;20029;-68
2022/08/15 01:26:51;;;;;;;23.03;20.60;;;;;;;21.24;71.90;100180.06;5023429;28;20075;-68
2022/08/15 01:29:18;;;;;;;23.88;20.73;;;;;;;21.31;71.24;100178.81;5023947;28;20036;-68
2022/08/15 01:31:46;;;;;;;24.17;21.58;;;;;;;21.34;70.69;100181.78;5023121;28;20467;-68
2022/08/15 01:34:11;;;;;;;22.48;20.15;;;;;;;21.45;69.02;100172.00;5022445;28;20029;-68
2022/08/15 01:36:37;;;;;;;22.52;19.98;;;;;;;21.52;69.02;100173.50;5023060;28;20033;-68
2022/08/15 01:39:11;;;;;;;21.23;18.85;;;;;;;21.50;69.27;100171.03;5005428;28;20037;-68
2022/08/15 01:41:44;;;;;;;22.92;19.08;;;;;;;21.54;69.01;100171.19;5003548;28;20113;-68
2022/08/15 01:44:22;;;;;;;20.60;18.50;;;;;;;21.50;69.61;100168.25;5003193;28;20068;-68
2022/08/15 01:46:58;;;;;;;22.80;20.30;;;;;;;21.38;70.31;100174.41;5004089;28;20040;-68
2022/08/15 01:49:30;;;;;;;21.08;18.75;;;;;;;21.41;70.05;100170.16;5002420;28;20499;-68
2022/08/15 01:52:00;;;;;;;19.67;17.67;;;;;;;21.46;68.93;100170.03;5002849;28;20036;-68
2022/08/15 01:54:29;;;;;;;20.30;17.50;;;;;;;21.45;67.54;100163.63;5003611;28;20465;-68
2022/08/15 01:56:54;;;;;;;19.17;17.15;;;;;;;21.53;67.54;100167.59;5002386;28;20033;-68
2022/08/15 01:59:22;;;;;;;18.90;16.88;;;;;;;21.50;67.21;100160.69;5003727;28;20061;-68
2022/08/15 02:01:54;;;;;;;18.55;16.65;;;;;;;21.54;65.87;100163.63;5003707;28;20103;-68
2022/08/15 02:04:31;;;;;;;18.15;15.90;;;;;;;21.51;65.43;100161.50;5002292;28;20552;-68
2022/08/15 02:07:00;;;;;;;17.08;14.98;;;;;;;21.55;64.45;100170.91;5002884;28;20385;-68
2022/08/15 02:09:26;;;;;;;17.58;15.68;;;;;;;21.57;63.57;100181.75;5003543;28;20022;-68
2022/08/15 02:11:52;;;;;;;19.55;16.05;;;;;;;21.60;62.70;100181.94;5002212;28;20013;-68
2022/08/15 02:14:20;;;;;;;18.55;16.70;;;;;;;21.61;63.11;100186.38;5003559;28;20026;-68
2022/08/15 02:16:45;;;;;;;20.00;16.55;;;;;;;21.62;62.50;100187.19;5021487;28;20552;-68
2022/08/15 02:19:12;;;;;;;17.50;15.65;;;;;;;21.63;61.80;100183.25;5021855;28;20101;-68
2022/08/15 02:21:41;;;;;;;18.48;15.23;;;;;;;21.57;63.41;100182.56;5022255;28;20044;-68
2022/08/15 02:24:10;;;;;;;16.40;14.63;;;;;;;21.55;62.97;100184.88;5022392;28;20472;-68
2022/08/15 02:26:36;;;;;;;16.55;14.13;;;;;;;21.50;62.83;100188.63;5022769;28;20025;-68
2022/08/15 02:29:02;;;;;;;16.98;14.60;;;;;;;21.52;61.70;100188.28;5005304;28;20507;-68
2022/08/15 02:31:30;;;;;;;15.70;14.02;;;;;;;21.52;60.85;100191.09;5002398;28;20439;-68
2022/08/15 02:33:58;;;;;;;17.20;13.55;;;;;;;21.50;61.55;100185.81;5001833;28;20026;-69
2022/08/15 02:36:26;;;;;;;16.98;14.02;;;;;;;21.48;61.84;100190.06;5002646;28;20121;-68
2022/08/15 02:38:52;;;;;;;16.48;13.55;;;;;;;21.49;61.68;100188.91;5002294;28;20026;-68
2022/08/15 02:41:24;;;;;;;17.58;13.20;;;;;;;21.52;60.52;100193.88;5003249;28;20026;-68
2022/08/15 02:43:50;;;;;;;16.95;13.07;;;;;;;21.54;61.10;100182.38;5003126;28;20432;-68
2022/08/15 02:46:17;;;;;;;14.98;13.07;;;;;;;21.53;59.71;100184.34;5002332;28;20668;-68
2022/08/15 02:48:46;;;;;;;18.17;11.60;;;;;;;21.49;60.59;100186.13;5001626;28;20040;-68
2022/08/15 02:51:14;;;;;;;16.13;11.32;;;;;;;21.48;59.44;100185.31;5001581;28;20018;-68
2022/08/15 02:53:45;;;;;;;14.23;11.15;;;;;;;21.46;59.50;100181.19;5002169;28;20030;-68
2022/08/15 02:56:11;;;;;;;17.50;10.70;;;;;;;21.41;59.19;100184.13;5002523;28;20203;-68
2022/08/15 02:58:36;;;;;;;12.30;10.32;;;;;;;21.40;59.93;100183.31;5002734;28;20034;-68
2022/08/15 03:01:09;;;;;;;11.98;9.70;;;;;;;21.39;59.08;100186.41;5002226;28;20113;-68
2022/08/15 03:03:38;;;;;;;11.63;9.50;;;;;;;21.42;58.53;100191.34;5001548;28;20046;-68
2022/08/15 03:06:06;;;;;;;12.32;9.20;;;;;;;21.42;57.37;100194.97;5019865;28;20029;-68
2022/08/15 03:08:32;;;;;;;12.40;9.25;;;;;;;21.42;56.82;100194.97;5022104;28;20041;-68
2022/08/15 03:10:57;;;;;;;12.50;7.60;;;;;;;21.39;56.27;100191.97;5021972;28;20155;-68
2022/08/15 03:13:22;;;;;;;11.00;8.13;;;;;;;21.41;56.63;100192.50;5022141;28;20037;-68
2022/08/15 03:15:55;;;;;;;19.02;8.10;;;;;;;21.36;55.89;100187.06;5021979;28;20662;-69
2022/08/15 03:18:23;;;;;;;10.43;7.50;;;;;;;21.34;56.38;100183.72;5021081;28;20678;-68
2022/08/15 03:20:51;;;;;;;11.18;7.00;;;;;;;21.32;56.52;100178.47;5015892;28;20029;-68
2022/08/15 03:23:18;;;;;;;13.98;7.68;;;;;;;21.27;55.71;100184.16;5021855;28;20021;-68
2022/08/15 03:25:48;;;;;;;10.20;6.90;;;;;;;21.20;56.58;100184.63;5021960;28;20403;-67
2022/08/15 03:28:15;;;;;;;9.32;7.13;;;;;;;21.17;56.09;100179.66;5021962;28;20014;-69
2022/08/15 03:30:41;;;;;;;10.75;6.53;;;;;;;21.17;55.79;100185.25;5021640;28;20026;-69
2022/08/15 03:33:06;;;;;;;10.13;6.70;;;;;;;21.12;56.21;100184.53;5020928;28;20037;-68
2022/08/15 03:35:38;;;;;;;13.75;6.75;;;;;;;21.09;56.49;100188.00;5003714;28;20545;-68
2022/08/15 03:38:03;;;;;;;11.10;6.38;;;;;;;21.07;55.50;100196.66;5007302;28;20113;-68
2022/08/15 03:40:30;;;;;;;12.38;6.70;;;;;;;21.03;55.69;100197.59;5001893;28;20444;-68
2022/08/15 03:42:59;;;;;;;17.58;6.78;;;;;;;20.97;56.12;100191.31;5001669;28;20026;-68
2022/08/15 03:45:27;;;;;;;9.95;6.70;;;;;;;20.93;56.61;100201.47;5001671;28;20040;-68
2022/08/15 03:47:52;;;;;;;10.27;7.13;;;;;;;20.91;55.54;100199.00;5001084;28;20108;-69
2022/08/15 03:50:19;;;;;;;12.10;6.43;;;;;;;20.88;56.70;100191.28;5001903;28;20634;-68
2022/08/15 03:52:57;;;;;;;10.15;6.75;;;;;;;20.89;56.09;100194.91;5008416;28;20160;-68
2022/08/15 03:55:24;;;;;;;10.18;6.60;;;;;;;20.79;56.87;100192.34;5021602;28;20190;-68
2022/08/15 03:57:50;;;;;;;11.07;7.30;;;;;;;20.80;56.36;100188.41;5021778;28;20037;-68
2022/08/15 04:00:18;;;;;;;10.65;6.55;;;;;;;20.75;56.28;100183.75;5022069;28;20025;-68
2022/08/15 04:02:43;;;;;;;9.82;6.78;;;;;;;20.76;56.14;100184.59;5023417;28;20021;-68
2022/08/15 04:05:09;;;;;;;12.50;7.32;;;;;;;20.73;55.80;100181.31;5024288;28;20313;-68
2022/08/15 04:07:36;;;;;;;11.23;7.32;;;;;;;20.75;55.99;100194.09;5024976;28;20017;-68
2022/08/15 04:10:05;;;;;;;10.73;6.75;;;;;;;20.64;56.96;100199.09;5011289;28;20169;-69
2022/08/15 04:12:34;;;;;;;12.18;7.00;;;;;;;20.60;56.83;100209.22;5005345;28;20120;-68
2022/08/15 04:15:01;;;;;;;11.68;8.02;;;;;;;20.62;56.34;100210.56;5005140;28;20141;-68
2022/08/15 04:17:26;;;;;;;12.15;7.38;;;;;;;20.60;56.59;100217.59;5004665;28;20022;-68
2022/08/15 04:19:52;;;;;;;12.82;8.23;;;;;;;20.58;56.54;100217.94;5004899;28;20058;-68
2022/08/15 04:22:28;;;;;;;12.40;8.15;;;;;;;20.56;56.62;100211.00;5004878;28;20025;-69
2022/08/15 04:24:53;;;;;;;10.75;7.53;;;;;;;20.50;56.82;100207.50;5005201;28;20109;-68
2022/08/15 04:27:18;;;;;;;13.63;8.15;;;;;;;20.46;56.68;100210.06;5005986;28;20108;-69
2022/08/15 04:29:44;;;;;;;11.60;7.90;;;;;;;20.46;56.84;100207.28;4987047;28;20033;-68
2022/08/15 04:32:12;;;;;;;12.68;8.60;;;;;;;20.47;56.45;100216.47;5003773;28;20829;-68
2022/08/15 04:34:38;;;;;;;;;;;;;;;20.54;56.59;100211.31;5005168;28;20559;-68
2022/08/15 04:37:03;;;;;;;10.50;7.35;;;;;;;20.37;57.04;100227.81;5004398;28;19935;-68
2022/08/15 04:39:28;;;;;;;10.18;7.68;;;;;;;20.42;57.04;100227.72;5005017;28;20052;-68
2022/08/15 04:41:54;;;;;;;12.07;8.27;;;;;;;20.40;57.05;100222.44;5004622;28;20060;-68
2022/08/15 04:44:19;;;;;;;11.93;7.75;;;;;;;20.30;57.93;100222.66;5010612;28;20280;-68
2022/08/15 04:46:45;;;;;;;12.60;7.90;;;;;;;20.31;57.82;100217.91;4986515;28;20029;-68
2022/08/15 04:49:10;;;;;;;13.45;7.78;;;;;;;20.28;58.26;100219.38;5004381;28;20285;-68
2022/08/15 04:51:37;;;;;;;11.50;7.47;;;;;;;20.30;58.16;100216.28;5004056;28;20014;-68
2022/08/15 04:54:03;;;;;;;10.90;7.65;;;;;;;20.28;58.67;100215.75;5004328;28;20041;-68
2022/08/15 04:56:28;;;;;;;13.07;7.55;;;;;;;20.32;58.69;100219.56;5004475;28;20121;-68
2022/08/15 04:58:54;;;;;;;10.55;7.55;;;;;;;20.32;58.88;100219.56;5003892;28;20093;-70
2022/08/15 05:01:19;;;;;;;12.75;7.07;;;;;;;20.35;58.68;100216.16;5006273;28;20040;-68
2022/08/15 05:03:44;;;;;;;10.55;7.45;;;;;;;20.32;58.60;100214.81;5003331;28;20125;-68
2022/08/15 05:06:10;;;;;;;11.52;8.05;;;;;;;20.34;59.05;100222.88;5003811;28;20041;-68
2022/08/15 05:08:38;;;;;;;12.18;7.97;;;;;;;20.42;57.94;100224.91;5004038;28;20534;-69
2022/08/15 05:11:04;;;;;;;;;;;;;;;20.58;57.57;100222.66;5004515;28;20204;-68
2022/08/15 05:13:33;;;;;;;12.25;7.57;;;;;;;20.50;58.86;100221.44;5003840;28;19936;-68
2022/08/15 05:15:59;;;;;;;12.50;7.28;;;;;;;20.57;57.99;100226.59;5003041;28;20037;-69
2022/08/15 05:18:26;;;;;;;13.27;8.52;;;;;;;20.58;57.92;100231.88;5002590;28;20026;-68
2022/08/15 05:20:52;;;;;;;14.38;8.25;;;;;;;20.62;58.24;100229.25;5003627;28;20053;-68
2022/08/15 05:23:19;;;;;;;14.48;8.20;;;;;;;20.64;59.23;100239.00;5003968;28;20058;-68
2022/08/15 05:25:50;;;;;;;12.68;8.07;;;;;;;20.67;58.38;100235.56;5003907;28;20410;-68
2022/08/15 05:28:16;;;;;;;10.40;7.90;;;;;;;20.79;58.45;100237.00;5004443;28;20056;-69
2022/08/15 05:30:41;;;;;;;15.52;8.32;;;;;;;20.82;58.42;100236.34;5003335;28;20037;-68
2022/08/15 05:33:13;;;;;;;9.75;7.85;;;;;;;20.88;58.82;100237.88;5011467;28;20045;-68
2022/08/15 05:35:49;;;;;;;14.60;7.85;;;;;;;20.92;59.01;100236.13;5006282;28;20041;-68
2022/08/15 05:38:20;;;;;;;14.95;7.93;;;;;;;20.92;59.44;100238.91;5003432;28;20033;-68
2022/08/15 05:41:08;;;;;;;10.20;7.63;;;;;;;21.01;58.74;100239.81;5003908;28;20100;-68
2022/08/15 05:43:50;;;;;;;12.38;7.70;;;;;;;21.05;59.17;100232.47;5003518;28;20061;-68
2022/08/15 05:46:33;;;;;;;12.27;7.85;;;;;;;21.07;59.37;100238.53;5003643;28;20132;-68
2022/08/15 05:49:05;;;;;;;12.85;7.43;;;;;;;21.08;59.78;100245.78;5001562;28;20029;-68
2022/08/15 05:51:43;;;;;;;12.15;7.00;;;;;;;21.09;59.89;100257.81;5013018;28;20029;-68
2022/08/15 05:54:21;;;;;;;12.68;8.18;;;;;;;21.10;60.23;100263.06;5001121;28;20030;-69
2022/08/15 05:57:14;;;;;;;11.80;7.97;;;;;;;21.15;60.02;100254.56;5002876;28;20064;-68
2022/08/15 05:59:43;;;;;;;11.73;7.05;;;;;;;21.10;60.41;100253.88;5001415;28;20032;-68
2022/08/15 06:02:34;;;;;;;13.27;7.53;;;;;;;21.10;60.62;100249.09;5001567;28;20025;-68
2022/08/15 06:05:11;;;;;;;11.77;7.35;;;;;;;21.07;61.63;100257.28;5005355;28;20034;-68
2022/08/15 06:07:38;;;;;;;12.65;7.18;;;;;;;21.09;61.83;100258.63;5006301;28;20029;-68
2022/08/15 06:10:11;;;;;;;10.37;7.03;;;;;;;21.11;61.65;100259.13;5000998;28;20060;-68
2022/08/15 06:12:43;;;;;;;10.98;7.05;;;;;;;21.11;62.24;100259.13;5020538;28;20308;-68
2022/08/15 06:15:25;;;;;;;11.57;7.55;;;;;;;21.22;61.65;100257.72;5001863;28;20026;-68
2022/08/15 06:17:58;;;;;;;12.93;7.00;;;;;;;21.15;62.49;100257.34;5000253;28;20430;-68
2022/08/15 06:20:42;;;;;;;11.13;7.43;;;;;;;21.21;62.41;100264.47;5000996;28;20026;-68
2022/08/15 06:23:40;;;;;;;14.75;6.93;;;;;;;21.29;62.80;100273.22;5010515;28;20030;-68
2022/08/15 06:26:31;;;;;;;11.98;7.47;;;;;;;21.35;62.46;100275.63;5017738;28;20029;-68
2022/08/15 06:29:21;;;;;;;14.02;7.90;;;;;;;21.38;62.83;100265.75;5002585;28;20040;-68
2022/08/15 06:31:54;;;;;;;13.52;7.30;;;;;;;21.48;62.98;100273.88;5000432;28;20046;-68
2022/08/15 06:34:28;;;;;;;11.02;7.38;;;;;;;21.56;63.57;100270.34;5019557;28;20116;-68
2022/08/15 06:37:03;;;;;;;13.10;8.13;;;;;;;21.67;62.70;100271.72;5000547;28;20377;-68
2022/08/15 06:39:39;;;;;;;13.77;7.22;;;;;;;21.72;62.57;100259.59;5008057;28;20025;-68
2022/08/15 06:42:13;;;;;;;14.40;7.53;;;;;;;21.82;62.80;100261.28;5002976;28;20030;-68
2022/08/15 06:44:39;;;;;;;12.15;7.78;;;;;;;21.91;62.95;100259.38;5020173;28;20024;-68
2022/08/15 06:47:07;;;;;;;11.80;7.47;;;;;;;21.91;62.99;100253.78;5020121;28;20029;-68
2022/08/15 06:49:45;;;;;;;18.23;8.25;;;;;;;21.97;62.68;100263.69;5022152;28;20029;-68
2022/08/15 06:52:10;;;;;;;;;;;;;;;22.08;61.21;100270.63;5021915;28;20040;-68
2022/08/15 06:54:39;;;;;;;13.43;7.78;;;;;;;21.97;62.86;100280.44;5022693;28;19913;-68
2022/08/15 06:57:16;;;;;;;16.45;8.25;;;;;;;21.94;63.00;100272.69;5021606;28;20026;-69
2022/08/15 06:59:47;;;;;;;;;;;;;;;22.02;62.50;100275.53;5022864;28;20032;-68
2022/08/15 07:02:36;;;;;;;13.02;8.30;;;;;;;21.93;62.79;100271.06;5020714;28;19913;-68
2022/08/15 07:05:13;;;;;;;12.48;9.20;;;;;;;21.90;63.84;100277.31;5004797;28;20074;-68
2022/08/15 07:08:00;;;;;;;12.38;8.85;;;;;;;21.95;63.82;100277.16;5002180;28;20069;-68
2022/08/15 07:10:35;;;;;;;13.52;9.07;;;;;;;21.93;64.01;100276.66;5002485;28;20037;-68
2022/08/15 07:13:12;;;;;;;12.40;8.50;;;;;;;22.07;64.95;100274.59;5014970;28;20560;-69
2022/08/15 07:15:53;;;;;;;15.77;9.63;;;;;;;22.10;63.67;100271.16;5021889;28;20045;-68
2022/08/15 07:18:28;;;;;;;17.67;10.55;;;;;;;22.10;64.06;100259.97;5021670;28;20041;-68
2022/08/15 07:21:07;;;;;;;14.25;8.98;;;;;;;22.28;64.47;100255.28;5020391;28;20033;-67
2022/08/15 07:23:35;;;;;;;15.05;9.20;;;;;;;22.29;63.85;100256.94;5022013;28;20037;-68
2022/08/15 07:26:07;;;;;;;15.60;9.80;;;;;;;22.32;63.47;100263.88;5022049;28;20167;-69
2022/08/15 07:28:34;;;;;;;15.13;9.85;;;;;;;22.32;63.86;100263.88;5021588;28;20029;-68
2022/08/15 07:31:23;;;;;;;15.10;9.45;;;;;;;22.53;63.11;100267.72;5021849;28;20325;-68
2022/08/15 07:33:51;;;;;;;15.23;9.48;;;;;;;22.51;63.44;100259.66;5021611;28;20037;-68
2022/08/15 07:36:16;;;;;;;13.82;9.52;;;;;;;22.57;63.78;100263.13;5021620;28;20025;-69
2022/08/15 07:38:42;;;;;;;13.00;9.13;;;;;;;22.70;63.95;100266.91;5026113;28;20037;-68
2022/08/15 07:41:29;;;;;;;16.90;10.30;;;;;;;22.86;63.30;100256.94;5009599;28;20038;-68
2022/08/15 07:44:14;;;;;;;17.63;11.10;;;;;;;22.93;63.57;100259.25;5005818;28;20674;-68
2022/08/15 07:46:48;;;;;;;17.55;11.57;;;;;;;22.91;63.36;100261.53;5005046;28;20034;-68
2022/08/15 07:49:20;;;;;;;15.85;11.38;;;;;;;22.94;63.44;100258.09;5005655;28;20122;-68
2022/08/15 07:52:00;;;;;;;18.05;11.50;;;;;;;22.98;63.21;100276.72;5005330;28;20176;-68
2022/08/15 07:54:30;;;;;;;16.10;11.43;;;;;;;23.03;63.31;100278.53;5005631;28;20022;-68
2022/08/15 07:56:58;;;;;;;17.15;11.55;;;;;;;23.00;63.08;100279.19;5008791;28;20024;-68
2022/08/15 07:59:27;;;;;;;15.88;11.80;;;;;;;23.04;63.31;100285.78;5006024;28;20437;-68
2022/08/15 08:02:03;;;;;;;17.17;12.00;;;;;;;23.10;62.97;100283.66;5014513;28;20126;-68
2022/08/15 08:04:29;;;;;;;19.30;12.52;;;;;;;23.16;62.89;100285.13;5024642;28;20049;-68
2022/08/15 08:07:10;;;;;;;19.98;12.27;;;;;;;23.27;63.17;100287.28;5024560;28;20072;-68
2022/08/15 08:09:44;;;;;;;21.45;13.02;;;;;;;23.39;62.42;100280.19;5024990;28;20034;-68
2022/08/15 08:12:20;;;;;;;18.00;13.35;;;;;;;23.56;61.91;100283.78;5024845;28;20068;-68
2022/08/15 08:15:02;;;;;;;17.48;12.52;;;;;;;23.71;61.26;100288.09;5007064;28;20091;-68
2022/08/15 08:18:08;;;;;;;18.33;13.52;;;;;;;23.98;61.11;100288.88;5004526;28;20041;-68
2022/08/15 08:20:59;;;;;;;19.13;13.80;;;;;;;24.07;60.09;100284.03;5004645;28;20439;-68
2022/08/15 08:23:31;;;;;;;18.60;13.77;;;;;;;24.13;59.70;100285.53;4993877;28;20042;-68
2022/08/15 08:26:24;;;;;;;18.58;13.88;;;;;;;24.16;59.84;100287.66;5004458;28;20064;-68
2022/08/15 08:29:05;;;;;;;20.35;13.85;;;;;;;24.10;59.75;100291.81;5005737;28;20036;-68
2022/08/15 08:31:49;;;;;;;17.65;13.88;;;;;;;24.05;59.68;100291.97;5003370;28;20034;-68
2022/08/15 08:34:27;;;;;;;19.33;13.52;;;;;;;23.94;60.24;100291.53;5004813;28;20053;-68
2022/08/15 08:37:17;;;;;;;23.30;14.35;;;;;;;23.89;60.24;100290.88;5003978;28;20030;-68
2022/08/15 08:41:24;;;;;;;17.35;12.95;;;;;;;23.83;60.55;100300.63;5005086;28;20022;-68
2022/08/15 08:42:55;;;;;;;16.13;12.60;;;;;;;23.76;61.05;100289.91;5004769;28;20044;-67
2022/08/15 08:45:28;;;;;;;17.90;13.13;;;;;;;23.74;61.27;100287.44;5004256;28;20097;-67
2022/08/15 08:48:23;;;;;;;17.13;12.35;;;;;;;23.72;61.43;100289.75;5002915;28;20721;-68
2022/08/15 08:51:10;;;;;;;18.35;12.32;;;;;;;23.67;61.21;100294.69;5005521;28;20269;-68
2022/08/15 08:53:49;;;;;;;17.13;11.50;;;;;;;23.64;61.88;100296.19;5024356;28;20384;-68
2022/08/15 08:56:21;;;;;;;17.27;11.88;;;;;;;23.63;62.07;100302.13;5024083;28;20026;-68
2022/08/15 08:59:05;;;;;;;15.00;11.15;;;;;;;23.71;61.40;100298.50;5024823;28;20109;-68
2022/08/15 09:01:32;;;;;;;15.50;10.82;;;;;;;23.73;61.60;100301.81;5023513;28;20096;-68
2022/08/15 09:04:06;;;;;;;16.23;11.43;;;;;;;23.68;61.56;100302.78;5020330;28;20496;-68
2022/08/15 09:06:38;;;;;;;16.05;10.45;;;;;;;23.66;61.56;100299.47;5022546;28;20033;-69
2022/08/15 09:09:10;;;;;;;18.63;10.73;;;;;;;23.56;61.82;100305.41;5024025;28;20053;-68
2022/08/15 09:11:44;;;;;;;16.08;11.00;;;;;;;23.50;61.81;100298.31;5023734;28;20458;-68
2022/08/15 09:14:22;;;;;;;16.73;11.02;;;;;;;23.49;62.25;100303.09;5023843;28;20116;-68
2022/08/15 09:16:51;;;;;;;16.73;11.02;;;;;;;23.48;62.82;100314.66;5023527;28;20124;-68
2022/08/15 09:19:28;;;;;;;15.40;10.88;;;;;;;23.52;62.53;100310.03;5024090;28;20041;-67
2022/08/15 09:21:54;;;;;;;17.00;11.38;;;;;;;23.48;62.39;100311.84;5023162;28;20036;-68
2022/08/15 09:24:22;;;;;;;16.27;10.65;;;;;;;23.46;62.57;100308.53;5003338;28;20063;-68
2022/08/15 09:27:05;;;;;;;14.25;10.60;;;;;;;23.49;62.76;100310.69;5004533;28;20029;-68
2022/08/15 09:29:33;;;;;;;14.85;10.65;;;;;;;23.46;63.01;100311.34;5003881;28;20056;-68
2022/08/15 09:32:10;;;;;;;13.80;10.65;;;;;;;23.51;63.36;100299.97;5002965;28;20026;-67
2022/08/15 09:35:03;;;;;;;14.63;10.77;;;;;;;23.55;63.53;100310.19;5003184;28;20042;-68
2022/08/15 09:37:53;;;;;;;16.25;10.43;;;;;;;23.64;63.80;100313.03;5002964;28;20045;-67
2022/08/15 09:40:49;;;;;;;15.60;10.90;;;;;;;23.74;64.25;100323.91;5003126;28;20073;-68
2022/08/15 09:43:42;;;;;;;16.20;10.77;;;;;;;23.74;63.97;100315.47;5022359;28;20029;-68
2022/08/15 09:46:29;;;;;;;14.32;10.30;;;;;;;23.76;63.05;100312.34;5021721;28;20059;-68
2022/08/15 09:49:16;;;;;;;16.45;10.20;;;;;;;23.80;63.86;100302.09;5022674;28;20029;-69
2022/08/15 09:51:49;;;;;;;;;;;;;;;24.00;63.26;100309.81;5022358;28;20029;-68
2022/08/15 09:54:18;;;;;;;15.85;10.15;;;;;;;24.18;64.62;100310.59;5022771;28;19913;-68
2022/08/15 09:56:44;;;;;;;13.40;9.85;;;;;;;24.31;62.78;100312.34;5022693;28;20017;-68
2022/08/15 09:59:20;;;;;;;13.20;9.02;;;;;;;24.51;61.94;100315.59;5014858;28;20056;-68
2022/08/15 10:01:48;;;;;;;13.65;9.13;;;;;;;24.74;60.71;100313.34;5021929;28;20476;-68
2022/08/15 10:04:17;;;;;;;14.20;8.90;;;;;;;24.90;60.59;100313.59;5022274;28;20051;-68
2022/08/15 10:07:17;;;;;;;12.95;9.23;;;;;;;25.20;58.94;100312.41;5021718;28;20520;-68
2022/08/15 10:09:44;;;;;;;15.02;8.93;;;;;;;25.23;57.91;100317.34;5022371;28;20025;-68
2022/08/15 10:12:09;;;;;;;16.67;8.98;;;;;;;25.66;57.19;100320.97;5022216;28;20026;-68
2022/08/15 10:14:47;;;;;;;13.30;8.90;;;;;;;25.43;56.35;100307.25;5018255;28;20083;-68
2022/08/15 10:17:34;;;;;;;12.52;9.02;;;;;;;25.22;57.60;100310.06;5001709;28;20029;-67
2022/08/15 10:20:18;;;;;;;12.93;8.10;;;;;;;25.17;57.63;100312.28;5002655;28;20026;-68
2022/08/15 10:22:51;;;;;;;10.18;8.35;;;;;;;25.12;57.88;100306.84;5002670;28;20428;-67
2022/08/15 10:25:17;;;;;;;11.55;8.75;;;;;;;25.16;57.66;100316.25;5003264;28;20032;-68
2022/08/15 10:28:10;;;;;;;14.15;8.57;;;;;;;25.14;57.26;100310.13;5002432;28;20023;-68
2022/08/15 10:30:41;;;;;;;14.57;8.30;;;;;;;24.94;57.79;100311.72;5006199;28;20045;-67
2022/08/15 10:33:31;;;;;;;16.10;9.18;;;;;;;24.96;57.67;100309.41;5001608;28;20102;-67
2022/08/15 10:36:16;;;;;;;13.30;8.50;;;;;;;24.89;58.10;100312.78;5001556;28;20092;-68
2022/08/15 10:39:09;;;;;;;11.85;8.45;;;;;;;24.87;57.59;100320.69;5002903;28;20030;-67
2022/08/15 10:41:40;;;;;;;11.88;7.78;;;;;;;24.97;57.43;100316.66;4998348;28;20046;-68
2022/08/15 10:44:42;;;;;;;12.60;8.60;;;;;;;25.14;57.43;100312.94;5002461;28;20033;-67
2022/08/15 10:47:28;;;;;;;12.00;8.20;;;;;;;25.32;56.48;100318.09;5001577;28;20041;-67
2022/08/15 10:50:14;;;;;;;12.48;7.40;;;;;;;25.45;56.33;100323.81;5001721;28;20033;-68
2022/08/15 10:52:45;;;;;;;11.23;7.35;;;;;;;25.27;56.30;100307.06;5002552;28;20030;-68
2022/08/15 10:55:25;;;;;;;11.23;7.40;;;;;;;25.19;57.00;100319.19;5002040;28;20476;-67
2022/08/15 10:57:55;;;;;;;15.27;7.75;;;;;;;24.98;57.42;100324.75;5001848;28;20052;-67
2022/08/15 11:00:37;;;;;;;11.90;7.72;;;;;;;24.99;57.90;100322.75;5001635;28;20132;-67
2022/08/15 11:03:06;;;;;;;14.10;7.70;;;;;;;24.81;58.62;100331.31;5001140;28;20441;-67
2022/08/15 11:05:32;;;;;;;10.32;7.70;;;;;;;24.59;58.98;100328.78;5001779;28;20100;-67
2022/08/15 11:07:57;;;;;;;11.30;7.40;;;;;;;24.55;59.69;100327.81;5001829;28;20434;-68
2022/08/15 11:10:27;;;;;;;13.35;7.53;;;;;;;24.47;59.57;100325.84;5002103;28;20034;-67
2022/08/15 11:12:57;;;;;;;13.00;7.68;;;;;;;24.44;59.52;100326.56;5005353;28;20026;-67
2022/08/15 11:15:56;;;;;;;10.77;8.07;;;;;;;24.47;59.36;100337.91;5006278;28;20385;-68
2022/08/15 11:18:28;;;;;;;11.27;8.13;;;;;;;24.32;59.73;100330.00;5006435;28;20133;-67
2022/08/15 11:21:12;;;;;;;10.63;7.65;;;;;;;24.26;59.82;100331.34;5014082;28;20489;-68
2022/08/15 11:23:39;;;;;;;9.35;7.18;;;;;;;24.22;60.24;100331.19;5025028;28;20069;-68
2022/08/15 11:26:08;;;;;;;12.35;7.43;;;;;;;24.24;60.65;100325.28;5005592;28;20506;-68
2022/08/15 11:28:34;;;;;;;10.88;7.32;;;;;;;24.25;59.80;100324.09;4988223;28;20022;-68
2022/08/15 11:31:17;;;;;;;11.27;7.53;;;;;;;24.34;60.29;100328.53;5004652;28;20020;-67
2022/08/15 11:33:48;;;;;;;14.15;7.28;;;;;;;24.38;59.77;100333.47;5006012;28;20392;-68
2022/08/15 11:36:21;;;;;;;10.70;6.85;;;;;;;24.42;59.99;100342.88;5004839;28;20037;-67
2022/08/15 11:38:52;;;;;;;11.35;6.70;;;;;;;24.47;59.73;100331.47;5006325;28;20110;-67